Etusivu
METAR-TAF:

METAR-TAF

Lentoasemat :

Beauvechain, Belgia

Leveyspiiri: 50-45N, Pituuspiiri: 004-46E, korkeus merenpinnasta: 105 m

Tämänhetkinen sää

Tämä raportti tehtiin 38 minuuttia sitten, kello 18.25 UTC
Tuuli 8 kn lännestä
Lämpötila 11°C
Kosteus 50%
Ilmanpaine 1017 hPa
Näkyvyys 10 km tai enemmän

METAR: EBBE 261825Z AUTO 26008KT 9999 NCD 11/01 Q1017 BLU

Aika: 21:03 (19:03 UTC)

Sääennuste

Tämä raportti tehtiin 3 tuntia ja 22 minuuttia sitten, kello 15.41 UTC
Ennuste voimassa 26. päivästä klo 19 UTC - 27. päivään klo 07 UTC
Tuuli 8 kn lännestä
Näkyvyys 10 km tai enemmän
Muutamia pilviä 5000 ft:n korkeudessa
Tulossa
27. päivästä klo 01 UTC - 27. päivään klo 03 UTC
Tuuli 5 kn etelästä/lounaasta
Hajonneita pilviä 10000 ft:n korkeudessa

TAF: EBBE 261541Z 2619/2707 27008KT 9999 FEW050 BECMG 2701/2703 21005KT BKN100

Säähavainnot ja -ennusteet yli 4000 lentoasemalta (METAR- ja TAF-raportit).

Käytössä olevat sääasemat on merkitty karttaan keltaisilla ja punaisilla pisteillä.

Aseta hiiri pisteen päälle nähdäksesi sääaseman nimen.

Klikkaa sitten nähdäksesi säähavainnot ja -ennusteet.

Kartan vaihtaminen: klikkaa mustalla rastilla varustettuja vihreitä pisteitä, niin voit zoomata sisään; viivalla varustettua vihreää pistettä, niin voit zoomata ulos tai vihreitä nuolia, niin pääset viereisille kartoille.


METAR-TAF: